createdAt,value
2018-09-03T00:01:40.330Z,82.17
2018-09-03T00:04:10.030Z,73.30
2018-09-03T00:06:49.386Z,76.57
2018-09-03T00:09:35.953Z,70.33
2018-09-03T00:12:07.518Z,86.20
2018-09-03T00:14:38.094Z,77.40
2018-09-03T00:17:08.387Z,81.57
2018-09-03T00:22:32.782Z,73.20
2018-09-03T00:25:02.222Z,77.33
2018-09-03T00:27:50.313Z,72.83
2018-09-03T00:30:24.230Z,75.20
2018-09-03T00:33:02.265Z,74.67
2018-09-03T00:35:48.478Z,77.80
2018-09-03T00:38:26.293Z,82.93
2018-09-03T00:41:01.637Z,73.43
2018-09-03T00:43:36.818Z,71.57
2018-09-03T00:46:11.837Z,75.13
2018-09-03T00:48:44.922Z,69.57
2018-09-03T00:51:15.374Z,70.63
2018-09-03T00:53:46.986Z,86.77
2018-09-03T00:56:17.562Z,69.77
2018-09-03T00:59:04.999Z,70.70
2018-09-03T01:02:04.194Z,74.50
2018-09-03T01:04:37.578Z,66.93
2018-09-03T01:07:11.636Z,71.70
2018-09-03T01:09:42.186Z,79.27
2018-09-03T01:12:30.343Z,72.43
2018-09-03T01:15:05.823Z,68.40
2018-09-03T01:17:35.390Z,69.47
2018-09-03T01:20:05.915Z,73.77
2018-09-03T01:22:43.483Z,74.30
2018-09-03T01:25:14.950Z,71.43
2018-09-03T01:27:47.534Z,66.80
2018-09-03T01:30:17.094Z,82.40
2018-09-03T01:32:59.032Z,76.50
2018-09-03T01:35:30.023Z,71.10
2018-09-03T01:38:04.506Z,66.27
2018-09-03T01:40:36.038Z,60.20
2018-09-03T01:43:05.554Z,78.97
2018-09-03T01:45:36.010Z,74.07
2018-09-03T01:48:06.489Z,77.90
2018-09-03T01:50:37.933Z,66.83
2018-09-03T01:53:11.682Z,75.43
2018-09-03T01:55:41.405Z,84.17
2018-09-03T01:58:33.674Z,63.83
2018-09-03T02:01:05.631Z,63.97
2018-09-03T02:03:40.237Z,73.30
2018-09-03T02:06:13.073Z,83.93
2018-09-03T02:08:52.318Z,71.27
2018-09-03T02:11:30.038Z,69.43
2018-09-03T02:14:00.495Z,66.93
2018-09-03T02:16:29.958Z,74.27
2018-09-03T02:19:05.591Z,64.67
2018-09-03T02:24:40.110Z,76.67
2018-09-03T02:27:17.089Z,74.00
2018-09-03T02:29:51.318Z,66.97
2018-09-03T02:32:37.145Z,67.63
2018-09-03T02:35:17.839Z,75.23
2018-09-03T02:37:47.782Z,69.87
2018-09-03T02:40:25.674Z,71.27
2018-09-03T02:42:59.446Z,74.50
2018-09-03T02:45:47.989Z,88.67
2018-09-03T02:48:29.914Z,73.10
2018-09-03T02:51:05.286Z,73.20
2018-09-03T02:53:34.777Z,73.03
2018-09-03T02:56:04.293Z,78.23
2018-09-03T02:58:33.805Z,75.90
2018-09-03T03:01:03.294Z,81.77
2018-09-03T03:03:43.813Z,88.67
2018-09-03T03:06:19.253Z,87.50
2018-09-03T03:08:50.078Z,75.87
2018-09-03T03:11:31.941Z,90.83
2018-09-03T03:14:07.419Z,84.17
2018-09-03T03:16:37.850Z,100.90
2018-09-03T03:19:07.413Z,89.73
2018-09-03T03:21:37.942Z,78.00
2018-09-03T03:24:09.397Z,91.83
2018-09-03T03:26:43.406Z,76.90
2018-09-03T03:29:27.053Z,80.40
2018-09-03T03:32:03.354Z,84.90
2018-09-03T03:34:33.821Z,92.57
2018-09-03T03:37:05.385Z,91.43
2018-09-03T03:39:34.870Z,77.67
2018-09-03T03:42:06.517Z,85.47
2018-09-03T03:44:41.905Z,96.37
2018-09-03T03:47:11.361Z,84.33
2018-09-03T03:49:59.077Z,92.23
2018-09-03T03:55:36.989Z,106.83
2018-09-03T03:58:13.139Z,108.00
2018-09-03T04:00:53.749Z,101.53
2018-09-03T04:03:28.679Z,98.27
2018-09-03T04:06:04.661Z,101.13
2018-09-03T04:08:44.073Z,96.50
2018-09-03T04:11:16.745Z,86.57
2018-09-03T04:14:03.061Z,89.37
2018-09-03T04:16:33.515Z,87.23
2018-09-03T04:19:16.365Z,88.53
2018-09-03T04:21:56.324Z,91.70
2018-09-03T04:24:36.625Z,126.10
2018-09-03T04:27:10.289Z,89.20
2018-09-03T04:29:58.309Z,85.13
2018-09-03T04:32:28.049Z,87.47
2018-09-03T04:35:05.322Z,97.43
2018-09-03T04:37:38.834Z,94.97
2018-09-03T04:40:24.623Z,93.20
2018-09-03T04:42:59.825Z,75.77
2018-09-03T04:45:29.498Z,89.23
2018-09-03T04:47:59.064Z,81.60
2018-09-03T04:50:30.482Z,81.00
2018-09-03T04:53:00.230Z,78.80
2018-09-03T04:55:29.838Z,95.70
2018-09-03T04:57:59.434Z,78.17
2018-09-03T05:00:28.946Z,82.90
2018-09-03T05:02:58.450Z,61.20
2018-09-03T05:05:27.978Z,80.27
2018-09-03T05:07:57.466Z,84.93
2018-09-03T05:10:27.038Z,77.83
2018-09-03T05:12:56.710Z,73.53
2018-09-03T05:15:26.490Z,82.20
2018-09-03T05:17:57.125Z,95.37
2018-09-03T05:20:26.838Z,87.43
2018-09-03T05:22:56.946Z,63.80
2018-09-03T05:25:26.638Z,78.20
2018-09-03T05:27:59.818Z,81.83
2018-09-03T05:30:30.391Z,75.73
2018-09-03T05:32:59.882Z,80.27
2018-09-03T05:35:29.396Z,95.13
2018-09-03T05:37:59.079Z,74.27
2018-09-03T05:40:28.834Z,86.27
2018-09-03T05:42:58.470Z,84.73
2018-09-03T05:45:29.142Z,85.30
2018-09-03T05:47:58.759Z,86.83
2018-09-03T05:50:31.249Z,78.87
2018-09-03T05:53:00.745Z,83.07
2018-09-03T05:55:30.257Z,79.70
2018-09-03T05:58:00.978Z,79.33
2018-09-03T06:00:32.617Z,94.03
2018-09-03T06:03:02.609Z,78.73
2018-09-03T06:05:32.237Z,73.50
2018-09-03T06:08:02.978Z,79.67
2018-09-03T06:10:33.678Z,74.97
2018-09-03T06:13:03.126Z,76.83
2018-09-03T06:15:32.793Z,77.67
2018-09-03T06:18:02.353Z,86.90
2018-09-03T06:20:31.826Z,71.70
2018-09-03T06:23:01.329Z,95.63
2018-09-03T06:25:31.986Z,82.80
2018-09-03T06:28:01.682Z,96.60
2018-09-03T06:30:31.307Z,106.50
2018-09-03T06:33:00.759Z,87.07
2018-09-03T06:35:30.306Z,90.33
2018-09-03T06:37:59.789Z,95.13
2018-09-03T06:40:29.393Z,86.37
2018-09-03T06:42:59.966Z,92.73
2018-09-03T06:45:29.434Z,96.77
2018-09-03T06:47:58.921Z,107.63
2018-09-03T06:50:28.434Z,102.63
2018-09-03T06:52:57.993Z,118.70
2018-09-03T06:55:27.878Z,105.13
2018-09-03T06:57:57.477Z,98.57
2018-09-03T07:00:28.240Z,89.43
2018-09-03T07:02:57.805Z,97.53
2018-09-03T07:05:27.509Z,102.27
2018-09-03T07:07:58.152Z,103.40
2018-09-03T07:10:27.613Z,85.60
2018-09-03T07:12:57.181Z,105.23
2018-09-03T07:15:27.677Z,99.67
2018-09-03T07:17:57.209Z,69.00
2018-09-03T07:20:29.974Z,72.13
2018-09-03T07:22:59.633Z,62.97
2018-09-03T07:25:29.189Z,70.70
2018-09-03T07:27:59.809Z,64.87
2018-09-03T07:30:31.263Z,66.13
2018-09-03T07:33:00.787Z,65.77
2018-09-03T07:35:30.299Z,59.20
2018-09-03T07:37:59.776Z,65.10
2018-09-03T07:40:32.765Z,61.13
2018-09-03T07:43:03.384Z,55.33
2018-09-03T07:45:32.897Z,57.40
2018-09-03T07:48:03.645Z,60.10
2018-09-03T07:50:33.130Z,58.40
2018-09-03T07:53:02.633Z,67.17
2018-09-03T07:55:32.141Z,61.47
2018-09-03T07:58:01.817Z,55.17
2018-09-03T08:00:31.469Z,58.70
2018-09-03T08:03:02.229Z,66.33
2018-09-03T08:05:31.785Z,59.63
2018-09-03T08:08:01.307Z,50.03
2018-09-03T08:10:30.804Z,57.30
2018-09-03T08:13:01.437Z,59.53
2018-09-03T08:15:30.842Z,58.10
2018-09-03T08:18:00.337Z,62.97
2018-09-03T08:20:30.070Z,56.67
2018-09-03T08:22:59.682Z,71.03
2018-09-03T08:25:35.529Z,59.63
2018-09-03T08:28:12.977Z,55.00
2018-09-03T08:30:44.434Z,50.80
2018-09-03T08:33:17.246Z,56.87
2018-09-03T08:35:46.770Z,74.00
2018-09-03T08:38:24.078Z,59.57
2018-09-03T08:40:59.450Z,57.20
2018-09-03T08:43:30.030Z,68.43
2018-09-03T08:46:02.685Z,71.20
2018-09-03T08:48:32.421Z,66.30
2018-09-03T08:51:02.974Z,67.60
2018-09-03T08:53:32.520Z,70.70
2018-09-03T08:56:02.090Z,62.57
2018-09-03T08:58:31.842Z,70.43
2018-09-03T09:01:01.462Z,72.67
2018-09-03T09:03:37.405Z,63.63
2018-09-03T09:06:07.310Z,58.23
2018-09-03T09:08:37.145Z,55.30
2018-09-03T09:11:10.134Z,64.90
2018-09-03T09:13:39.798Z,60.57
2018-09-03T09:16:09.558Z,62.30
2018-09-03T09:18:40.362Z,61.73
2018-09-03T09:21:13.250Z,55.87
2018-09-03T09:23:42.857Z,54.87
2018-09-03T09:26:13.394Z,60.50
2018-09-03T09:28:45.137Z,47.60
2018-09-03T09:31:14.754Z,45.00
2018-09-03T09:33:45.286Z,42.43
2018-09-03T09:36:14.778Z,53.23
2018-09-03T09:38:44.285Z,46.33
2018-09-03T09:41:13.805Z,44.80
2018-09-03T09:43:44.337Z,39.43
2018-09-03T09:46:17.930Z,44.17
2018-09-03T09:48:47.445Z,36.40
2018-09-03T09:51:16.925Z,40.13
2018-09-03T09:53:46.624Z,41.57
2018-09-03T09:56:16.949Z,38.53
2018-09-03T09:58:46.777Z,48.53
2018-09-03T10:01:21.701Z,40.00
2018-09-03T10:03:51.209Z,38.30
2018-09-03T10:06:20.717Z,39.87
2018-09-03T10:08:50.221Z,40.03
2018-09-03T10:11:19.685Z,48.73
2018-09-03T10:13:51.173Z,43.63
2018-09-03T10:16:20.693Z,43.60
2018-09-03T10:18:51.193Z,49.60
2018-09-03T10:21:21.637Z,41.53
2018-09-03T10:23:52.113Z,37.30
2018-09-03T10:26:22.815Z,38.07
2018-09-03T10:28:59.741Z,37.13
2018-09-03T10:31:29.289Z,41.90
2018-09-03T10:33:58.981Z,39.50
2018-09-03T10:36:28.658Z,44.93
2018-09-03T10:38:59.102Z,37.40
2018-09-03T10:41:29.661Z,35.43
2018-09-03T10:44:00.118Z,34.80
2018-09-03T10:46:30.553Z,40.23
2018-09-03T10:49:00.113Z,53.27
2018-09-03T10:51:29.605Z,44.97
2018-09-03T10:53:59.322Z,44.57
2018-09-03T10:56:29.086Z,52.87
2018-09-03T10:58:59.665Z,47.87
2018-09-03T11:01:34.791Z,48.37
2018-09-03T11:04:05.337Z,47.10
2018-09-03T11:06:39.933Z,47.00
2018-09-03T11:09:13.669Z,53.77
2018-09-03T11:11:44.173Z,44.90
2018-09-03T11:17:14.201Z,45.13
2018-09-03T11:19:57.516Z,48.30
2018-09-03T11:22:30.950Z,49.97
2018-09-03T11:25:02.417Z,49.70
2018-09-03T11:27:36.313Z,58.10
2018-09-03T11:30:06.814Z,53.70
2018-09-03T11:32:46.192Z,67.40
2018-09-03T11:35:34.601Z,60.23
2018-09-03T11:38:07.285Z,63.20
2018-09-03T11:41:00.110Z,50.47
2018-09-03T11:43:30.525Z,58.40
2018-09-03T11:46:02.314Z,54.10
2018-09-03T11:48:33.850Z,57.47
2018-09-03T11:51:03.317Z,54.13
2018-09-03T11:53:56.506Z,54.07
2018-09-03T11:56:26.207Z,48.90
2018-09-03T11:59:01.885Z,46.17
2018-09-03T12:01:34.789Z,46.90
2018-09-03T12:04:16.461Z,43.03
2018-09-03T12:06:50.086Z,35.93
2018-09-03T12:09:39.066Z,43.93
2018-09-03T12:12:10.910Z,38.87
2018-09-03T12:14:44.582Z,34.67
2018-09-03T12:17:34.553Z,42.03
2018-09-03T12:20:06.295Z,40.60
2018-09-03T12:22:39.085Z,43.33
2018-09-03T12:25:21.817Z,50.93
2018-09-03T12:27:51.569Z,33.00
2018-09-03T12:30:22.166Z,32.13
2018-09-03T12:32:57.866Z,33.73
2018-09-03T12:35:28.457Z,32.10
2018-09-03T12:38:01.369Z,27.07
2018-09-03T12:40:32.821Z,30.93
2018-09-03T12:43:02.325Z,24.23
2018-09-03T12:45:39.289Z,28.93
2018-09-03T12:55:12.397Z,26.57
2018-09-03T12:57:42.825Z,32.30
2018-09-03T13:00:21.140Z,30.00
2018-09-03T13:02:58.335Z,24.90
2018-09-03T13:05:27.784Z,23.63
2018-09-03T13:08:00.401Z,29.93
2018-09-03T13:10:34.333Z,24.60
2018-09-03T13:13:03.827Z,23.37
2018-09-03T13:15:33.241Z,20.00
2018-09-03T13:18:02.689Z,21.47
2018-09-03T13:20:35.549Z,24.13
2018-09-03T13:23:20.201Z,22.90
2018-09-03T13:25:50.816Z,22.27
2018-09-03T13:28:21.321Z,21.20
2018-09-03T13:30:51.865Z,18.67
2018-09-03T13:33:25.036Z,17.33
2018-09-03T13:36:01.170Z,16.17
2018-09-03T13:38:31.724Z,18.00
2018-09-03T13:41:01.245Z,19.93
2018-09-03T13:43:31.533Z,16.03
2018-09-03T13:46:00.941Z,14.97
2018-09-03T13:48:32.404Z,17.83
2018-09-03T13:51:01.932Z,12.83
2018-09-03T13:53:31.412Z,12.97
2018-09-03T13:56:00.855Z,12.77
2018-09-03T13:58:32.557Z,11.97
2018-09-03T14:01:02.192Z,11.50
2018-09-03T14:03:39.008Z,14.20
2018-09-03T14:06:08.540Z,9.80
2018-09-03T14:08:40.018Z,9.27
2018-09-03T14:11:11.491Z,11.87
2018-09-03T14:13:43.189Z,9.87
2018-09-03T14:16:14.728Z,11.57
2018-09-03T14:18:45.206Z,10.97
2018-09-03T14:21:18.088Z,9.00
2018-09-03T14:23:50.885Z,16.07
2018-09-03T14:26:21.360Z,20.53
2018-09-03T14:28:52.845Z,13.37
2018-09-03T14:31:22.673Z,10.57
2018-09-03T14:33:52.305Z,14.30
2018-09-03T14:36:21.854Z,13.67
2018-09-03T14:38:56.172Z,9.87
2018-09-03T14:41:25.696Z,11.60
2018-09-03T14:44:00.873Z,15.03
2018-09-03T14:46:35.477Z,12.47
2018-09-03T14:49:05.028Z,12.77
2018-09-03T14:51:39.288Z,11.30
2018-09-03T14:54:10.045Z,13.70
2018-09-03T14:56:40.922Z,13.50
2018-09-03T14:59:10.741Z,16.47
2018-09-03T15:01:41.385Z,15.47
2018-09-03T15:04:15.539Z,11.00
2018-09-03T15:06:45.905Z,13.70
2018-09-03T15:09:15.575Z,12.87
2018-09-03T15:11:46.172Z,13.67
2018-09-03T15:14:15.625Z,10.77
2018-09-03T15:16:45.152Z,14.07
2018-09-03T15:19:14.657Z,14.77
2018-09-03T15:21:44.101Z,11.00
2018-09-03T15:24:13.768Z,13.27
2018-09-03T15:26:43.410Z,10.97
2018-09-03T15:29:15.106Z,12.83
2018-09-03T15:31:44.632Z,13.57
2018-09-03T15:34:20.172Z,14.30
2018-09-03T15:36:49.601Z,10.30
2018-09-03T15:39:20.025Z,11.40
2018-09-03T15:41:56.909Z,11.83
2018-09-03T15:44:32.221Z,14.30
2018-09-03T15:47:01.657Z,11.33
2018-09-03T15:49:32.278Z,10.60
2018-09-03T15:52:01.721Z,10.40
2018-09-03T15:54:32.220Z,9.93
2018-09-03T15:57:01.709Z,9.20
2018-09-03T15:59:37.285Z,12.50
2018-09-03T16:02:11.061Z,12.30
2018-09-03T16:04:40.517Z,13.33
2018-09-03T16:07:13.729Z,13.37
2018-09-03T16:09:48.365Z,13.87
2018-09-03T16:12:19.777Z,15.47
2018-09-03T16:14:50.261Z,13.33
2018-09-03T16:17:42.885Z,15.00
2018-09-03T16:20:15.705Z,14.13
2018-09-03T16:23:01.477Z,12.47
2018-09-03T16:25:34.317Z,16.40
2018-09-03T16:28:14.345Z,16.20
2018-09-03T16:30:45.165Z,16.70
2018-09-03T16:33:19.473Z,9.87
2018-09-03T16:35:59.214Z,12.93
2018-09-03T16:38:28.849Z,11.00
2018-09-03T16:40:58.616Z,14.83
2018-09-03T16:43:30.173Z,15.27
2018-09-03T16:46:01.845Z,18.30
2018-09-03T16:48:43.861Z,20.63
2018-09-03T16:51:19.085Z,16.47
2018-09-03T16:53:49.549Z,21.90
2018-09-03T16:56:19.149Z,20.73
2018-09-03T16:58:59.521Z,19.50
2018-09-03T17:01:43.709Z,17.57
2018-09-03T17:04:14.141Z,17.50
2018-09-03T17:09:50.255Z,16.37
2018-09-03T17:12:19.664Z,19.37
2018-09-03T17:14:49.216Z,19.80
2018-09-03T17:20:13.742Z,20.20
2018-09-03T17:22:47.244Z,18.37
2018-09-03T17:25:17.029Z,23.30
2018-09-03T17:27:51.363Z,17.83
2018-09-03T17:30:27.493Z,29.27
2018-09-03T17:32:58.052Z,26.33
2018-09-03T17:35:54.733Z,28.83
2018-09-03T17:38:36.564Z,22.67
2018-09-03T17:41:22.988Z,20.87
2018-09-03T17:44:02.756Z,23.60
2018-09-03T17:46:37.944Z,19.80
2018-09-03T17:49:09.400Z,25.33
2018-09-03T17:51:54.933Z,25.47
2018-09-03T17:54:25.736Z,26.33
2018-09-03T17:57:00.329Z,31.20
2018-09-03T17:59:32.821Z,45.73
2018-09-03T18:02:11.873Z,33.93
2018-09-03T18:04:51.468Z,29.80
2018-09-03T18:07:25.708Z,23.57
2018-09-03T18:10:04.865Z,22.10
2018-09-03T18:12:35.385Z,18.83
2018-09-03T18:15:05.352Z,23.90
2018-09-03T18:17:35.916Z,20.00
2018-09-03T18:20:11.536Z,22.90
2018-09-03T18:22:47.360Z,20.70
2018-09-03T18:25:16.892Z,20.67
2018-09-03T18:27:56.733Z,20.53
2018-09-03T18:33:20.232Z,20.50
2018-09-03T18:35:50.113Z,23.50
2018-09-03T18:38:20.612Z,24.87
2018-09-03T18:40:52.041Z,26.73
2018-09-03T18:46:26.148Z,22.70
2018-09-03T18:49:00.053Z,20.90
2018-09-03T18:51:37.097Z,28.60
2018-09-03T18:54:07.684Z,31.67
2018-09-03T18:56:39.139Z,33.07
2018-09-03T18:59:20.706Z,33.63
2018-09-03T19:01:57.033Z,33.50
2018-09-03T19:04:44.816Z,35.77
2018-09-03T19:07:14.677Z,37.70
2018-09-03T19:09:49.802Z,32.90
2018-09-03T19:12:25.920Z,31.93
2018-09-03T19:14:58.524Z,35.87
2018-09-03T19:17:28.300Z,36.23
2018-09-03T19:19:59.880Z,45.60
2018-09-03T19:22:34.348Z,34.73
2018-09-03T19:25:08.144Z,30.80
2018-09-03T19:27:42.124Z,34.77
2018-09-03T19:30:19.376Z,31.90
2018-09-03T19:32:50.860Z,39.03
2018-09-03T19:35:22.444Z,35.63
2018-09-03T19:37:57.872Z,46.20
2018-09-03T19:40:27.512Z,42.80
2018-09-03T19:42:58.959Z,41.83
2018-09-03T19:45:34.971Z,36.80
2018-09-03T19:48:08.099Z,42.33
2018-09-03T19:50:45.804Z,35.70
2018-09-03T19:53:21.777Z,46.30
2018-09-03T19:55:53.560Z,36.70
2018-09-03T19:58:24.247Z,38.73
2018-09-03T20:00:56.936Z,37.77
2018-09-03T20:03:26.411Z,36.27
2018-09-03T20:05:59.691Z,37.47
2018-09-03T20:08:29.436Z,38.47
2018-09-03T20:10:58.944Z,37.90
2018-09-03T20:13:35.120Z,35.63
2018-09-03T20:16:07.796Z,35.50
2018-09-03T20:18:55.814Z,43.77
2018-09-03T20:21:44.428Z,39.03
2018-09-03T20:24:20.164Z,43.43
2018-09-03T20:26:53.870Z,51.77
2018-09-03T20:29:35.208Z,44.67
2018-09-03T20:32:27.457Z,51.80
2018-09-03T20:35:00.131Z,47.10
2018-09-03T20:37:42.412Z,52.47
2018-09-03T20:40:16.662Z,65.73
2018-09-03T20:42:50.567Z,59.80
2018-09-03T20:45:26.384Z,55.47
2018-09-03T20:47:58.932Z,67.77
2018-09-03T20:50:31.803Z,61.50
2018-09-03T20:53:24.815Z,78.70
2018-09-03T20:55:54.468Z,59.23
2018-09-03T20:58:24.295Z,78.97
2018-09-03T21:00:57.372Z,69.30
2018-09-03T21:03:26.879Z,73.10
2018-09-03T21:05:58.355Z,73.33
2018-09-03T21:08:45.471Z,71.60
2018-09-03T21:11:38.263Z,73.07
2018-09-03T21:14:17.191Z,75.37
2018-09-03T21:16:48.635Z,81.40
2018-09-03T21:19:18.295Z,89.17
2018-09-03T21:21:47.845Z,74.53
2018-09-03T21:24:27.776Z,75.10
2018-09-03T21:27:05.669Z,70.43
2018-09-03T21:29:43.640Z,74.57
2018-09-03T21:32:20.080Z,78.20
2018-09-03T21:34:53.383Z,73.80
2018-09-03T21:37:27.068Z,91.73
2018-09-03T21:39:56.756Z,75.97
2018-09-03T21:42:27.280Z,95.03
2018-09-03T21:44:58.952Z,77.13
2018-09-03T21:50:33.396Z,96.70
2018-09-03T21:53:02.916Z,91.13
2018-09-03T21:58:27.836Z,85.07
2018-09-03T22:00:59.408Z,98.23
2018-09-03T22:03:30.844Z,87.40
2018-09-03T22:06:03.836Z,85.43
2018-09-03T22:08:43.780Z,101.47
2018-09-03T22:11:25.040Z,74.93
2018-09-03T22:13:59.979Z,89.30
2018-09-03T22:16:35.084Z,110.03
2018-09-03T22:19:04.768Z,81.53
2018-09-03T22:21:44.532Z,90.40
2018-09-03T22:24:15.008Z,81.20
2018-09-03T22:26:48.120Z,92.70
2018-09-03T22:29:22.848Z,83.87
2018-09-03T22:31:57.358Z,79.30
2018-09-03T22:34:40.312Z,85.00
2018-09-03T22:37:33.672Z,97.10
2018-09-03T22:40:19.176Z,86.80
2018-09-03T22:42:54.444Z,80.27
2018-09-03T22:45:30.013Z,79.60
2018-09-03T22:47:59.596Z,82.37
2018-09-03T22:50:41.516Z,83.40
2018-09-03T22:53:17.772Z,82.00
2018-09-03T22:55:47.464Z,81.53
2018-09-03T23:01:19.716Z,96.47
2018-09-03T23:03:49.176Z,78.40
2018-09-03T23:06:35.756Z,80.30
2018-09-03T23:09:06.938Z,87.57
2018-09-03T23:11:47.148Z,74.67
2018-09-03T23:14:24.956Z,83.10
2018-09-03T23:16:58.472Z,81.63
2018-09-03T23:22:22.152Z,90.80
2018-09-03T23:24:51.643Z,86.03
2018-09-03T23:27:25.560Z,84.83
2018-09-03T23:29:58.976Z,100.23
2018-09-03T23:32:28.568Z,97.43
2018-09-03T23:34:59.125Z,83.20
2018-09-03T23:37:29.629Z,97.53
2018-09-03T23:39:59.088Z,87.87
2018-09-03T23:42:29.770Z,84.87
2018-09-03T23:45:05.576Z,88.57
2018-09-03T23:47:38.895Z,78.63
2018-09-03T23:50:08.379Z,80.60
2018-09-03T23:55:05.053Z,76.53
2018-09-03T23:57:43.028Z,90.97
